Latest Weather Observations for Mount Gambier

IDS60801

Issued at 9:32 pm CDT Sunday 21 December 2014 (issued every 30 minutes, with the page automatically refreshed every 10 minutes)

About weather observations | Map of weather stations | Latest weather observations for SA | Other Formats
Station Details ID: 026021 Name: MOUNT GAMBIER AERO Lat: -37.75 Lon: 140.77 Height: 63.0 m
Data from the previous 72 hours. | See also: Recent months at Mount Gambier
Date/Time
CDT
Temp
°C
App
Temp
°C
Dew
Point
Rel
Hum
%
Delta-T
°C
Wind Press
QNH
hPa
Press
MSL
hPa
Rain
since 9 am
mm
Dir
 
Spd
km/h
Gust
km/h
Spd
kts
Gust
kts
21/09:30pm 15.5 11.6 12.0 79 1.9 SSE 24 32 13 17 1014.2 - 0.0
21/09:00pm 15.5 11.9 11.8 78 2.0 SSE 22 28 12 15 1013.9 1013.7 0.0
21/08:30pm 15.9 11.6 11.9 77 2.2 SSE 26 33 14 18 1013.7 - 0.0
21/08:00pm 16.2 11.5 12.0 76 2.3 SSE 28 37 15 20 1013.5 - 0.0
21/07:30pm 16.8 12.1 12.1 74 2.6 S 28 37 15 20 1013.3 - 0.0
21/07:00pm 17.5 12.9 12.3 71 2.9 S 28 35 15 19 1013.2 - 0.0
21/06:30pm 18.6 13.6 12.1 66 3.6 S 30 35 16 19 1012.9 - 0.0
21/06:00pm 20.0 15.7 11.9 59 4.5 SSE 26 33 14 18 1012.7 1012.5 0.0
21/05:30pm 22.5 18.2 10.8 47 6.5 S 24 32 13 17 1012.4 - 0.0
21/05:00pm 21.9 17.5 10.4 48 6.3 S 24 28 13 15 1012.7 - 0.0
21/04:30pm 23.7 19.3 10.3 42 7.4 S 24 33 13 18 1012.6 - 0.0
21/04:00pm 23.6 19.3 10.9 44 7.1 SSW 24 30 13 16 1012.6 - 0.0
21/03:30pm 24.9 19.9 11.0 41 7.8 SSW 28 33 15 18 1012.8 - 0.0
21/03:00pm 24.1 20.0 11.5 45 7.1 SSW 24 33 13 18 1013.0 1012.8 0.0
21/02:30pm 25.0 22.2 11.4 42 7.7 S 17 20 9 11 1012.9 - 0.0
21/02:00pm 25.2 21.3 12.1 44 7.5 S 24 32 13 17 1013.5 - 0.0
21/01:30pm 25.9 22.7 12.0 42 8.0 SSW 20 33 11 18 1013.6 - 0.0
21/01:00pm 25.0 22.0 11.9 44 7.5 S 19 30 10 16 1013.6 - 0.0
21/12:30pm 24.1 20.6 12.2 47 6.8 S 22 30 12 16 1013.8 - 0.0
21/12:00pm 24.5 20.7 12.5 47 6.9 SSW 24 33 13 18 1014.0 1013.8 0.0
21/11:30am 25.1 19.9 11.5 42 7.7 SSW 30 39 16 21 1014.1 - 0.0
21/11:00am 25.6 20.9 9.4 36 8.9 SW 24 30 13 16 1013.9 - 0.0
21/10:30am 26.4 22.7 10.3 36 9.0 SSW 20 24 11 13 1013.7 - 0.0
21/10:00am 24.3 21.3 9.2 38 8.2 SW 15 19 8 10 1013.8 - 0.0
21/09:30am 23.0 21.4 10.3 44 7.0 WSW 9 13 5 7 1013.4 - 0.0
21/09:00am 21.3 21.4 10.3 49 6.0 CALM 0 7 0 4 1013.4 1013.2 0.0
21/08:30am 18.7 18.5 10.6 59 4.4 NW 2 6 1 3 1013.3 - 0.0
21/08:00am 16.1 16.3 10.7 70 2.9 CALM 0 0 0 0 1013.4 - 0.0
21/07:30am 14.3 14.2 10.7 79 1.9 ENE 2 7 1 4 1013.1 - 0.0
21/07:00am 12.5 12.8 10.8 89 0.9 CALM 0 0 0 0 1013.0 - 0.0
21/06:30am 9.9 9.6 8.7 92 0.6 CALM 0 4 0 2 1012.7 - 0.0
21/06:00am 9.3 8.2 8.3 93 0.5 NE 4 6 2 3 1012.4 1012.2 0.0
21/05:30am 9.8 8.4 9.0 95 0.4 NE 6 6 3 3 1012.4 - 0.0
21/05:00am 9.7 8.1 8.9 95 0.4 NE 7 7 4 4 1012.5 - 0.0
21/04:30am 9.9 8.0 8.9 93 0.5 NE 9 11 5 6 1012.3 - 0.0
21/04:00am 10.2 7.9 9.0 92 0.6 NE 11 11 6 6 1012.6 - 0.0
21/03:30am 10.3 10.1 8.9 91 0.7 CALM 0 0 0 0 1013.4 - 0.0
21/03:00am 10.7 9.2 9.3 91 0.7 ENE 7 7 4 4 1013.4 1013.2 0.0
21/02:30am 10.8 9.3 9.2 90 0.8 NE 7 9 4 5 1013.6 - 0.0
21/02:00am 11.0 8.8 9.2 89 0.9 ENE 11 15 6 8 1013.5 - 0.0
21/01:30am 11.0 8.8 9.4 90 0.8 ENE 11 13 6 7 1013.8 - 0.0
21/01:00am 11.2 9.4 9.4 89 0.9 E 9 11 5 6 1014.4 - 0.0
21/12:30am 11.4 9.6 9.6 89 0.9 ESE 9 11 5 6 1015.0 - 0.0
21/12:00am 11.7 10.0 9.7 87 1.0 SE 9 11 5 6 1015.6 1015.5 0.0
 
Date/Time
CDT
Temp
°C
App
Temp
°C
Dew
Point
Rel
Hum
%
Delta-T
°C
Wind Press
QNH
hPa
Press
MSL
hPa
Rain
since 9 am
mm
Dir
 
Spd
km/h
Gust
km/h
Spd
kts
Gust
kts
20/11:30pm 12.0 9.5 9.6 85 1.2 SE 13 15 7 8 1015.8 - 0.0
20/11:00pm 12.2 10.4 9.4 83 1.4 SE 9 13 5 7 1016.3 - 0.0
20/10:30pm 12.4 10.6 9.4 82 1.5 SE 9 11 5 6 1016.6 - 0.0
20/10:00pm 12.6 10.4 9.5 81 1.6 SSE 11 13 6 7 1016.7 - 0.0
20/09:30pm 13.4 11.2 9.5 77 2.0 SSE 11 13 6 7 1016.8 - 0.0
20/09:00pm 14.5 11.9 9.2 70 2.7 SSE 13 15 7 8 1016.7 1016.6 0.0
20/08:30pm 15.4 12.0 9.0 65 3.3 S 17 20 9 11 1016.7 - 0.0
20/08:00pm 16.7 12.9 9.2 61 3.9 S 19 26 10 14 1016.6 - 0.0
20/07:30pm 18.2 14.3 9.5 57 4.6 S 20 26 11 14 1016.6 - 0.0
20/07:00pm 19.1 15.3 9.7 54 5.0 S 20 26 11 14 1016.4 - 0.0
20/06:30pm 20.1 16.8 9.6 51 5.6 SSE 17 24 9 13 1016.1 - 0.0
20/06:00pm 20.5 16.2 9.2 48 6.0 SSW 22 30 12 16 1016.0 1015.9 0.0
20/05:30pm 21.4 17.4 9.0 45 6.6 S 20 30 11 16 1016.0 - 0.0
20/05:00pm 22.0 16.9 7.6 39 7.5 S 24 33 13 18 1016.3 - 0.0
20/04:30pm 22.6 18.3 7.7 38 7.8 SSW 20 32 11 17 1016.5 - 0.0
20/04:00pm 23.0 18.9 7.8 37 8.0 SSW 19 32 10 17 1016.7 - 0.0
20/03:30pm 23.0 19.7 8.0 38 7.9 S 15 24 8 13 1016.9 - 0.0
20/03:00pm 24.0 20.0 8.2 36 8.4 SW 19 28 10 15 1017.3 1017.2 0.0
20/02:30pm 23.4 19.0 7.6 36 8.3 WSW 20 30 11 16 1017.9 - 0.0
20/02:00pm 23.1 19.9 6.8 35 8.4 SSW 13 22 7 12 1018.1 - 0.0
20/01:30pm 22.6 19.0 6.9 36 8.1 W 15 26 8 14 1018.4 - 0.0
20/01:00pm 22.1 19.1 7.7 39 7.5 W 13 22 7 12 1018.6 - 0.0
20/12:30pm 21.4 17.0 7.2 40 7.3 SW 20 28 11 15 1019.0 - 0.0
20/12:00pm 21.1 17.8 8.1 43 6.8 SW 15 22 8 12 1019.3 1019.2 0.0
20/11:30am 20.5 17.0 7.4 42 6.7 WSW 15 22 8 12 1019.4 - 0.0
20/11:00am 20.3 16.5 7.7 44 6.5 WNW 17 22 9 12 1019.7 - 0.0
20/10:30am 19.0 15.7 8.1 49 5.6 SW 15 26 8 14 1019.8 - 0.0
20/10:00am 18.7 15.4 8.2 50 5.4 W 15 22 8 12 1020.1 - 0.0
20/09:30am 17.6 14.0 8.4 55 4.7 W 17 28 9 15 1020.1 - 0.0
20/09:00am 17.0 13.8 8.6 57 4.3 W 15 20 8 11 1020.2 1020.1 0.0
20/08:30am 16.1 13.0 8.7 61 3.8 WSW 15 24 8 13 1020.0 - 0.0
20/08:00am 15.6 11.7 8.7 63 3.5 W 19 20 10 11 1019.6 - 0.0
20/07:30am 14.6 12.6 10.0 74 2.4 WNW 11 15 6 8 1019.2 - 0.0
20/07:00am 13.1 11.4 9.8 80 1.7 NW 9 11 5 6 1018.8 - 0.0
20/06:30am 12.2 10.8 9.4 83 1.4 NW 7 9 4 5 1018.6 - 0.0
20/06:00am 12.0 10.5 9.2 83 1.4 NW 7 9 4 5 1018.2 1018.1 0.0
20/05:30am 11.6 10.2 9.4 86 1.1 N 7 9 4 5 1018.3 - 0.0
20/05:00am 11.4 10.1 9.2 86 1.1 NNW 6 7 3 4 1018.2 - 0.0
20/04:30am 11.0 9.6 9.0 87 1.0 NNW 6 9 3 5 1018.1 - 0.0
20/04:00am 11.5 10.0 9.3 86 1.1 NW 7 9 4 5 1018.1 - 0.0
20/03:30am 12.0 10.5 9.2 83 1.4 NW 7 9 4 5 1018.3 - 0.0
20/03:00am 11.4 9.5 9.0 85 1.2 NW 9 11 5 6 1018.4 1018.3 0.0
20/02:30am 11.1 9.5 8.9 86 1.1 NW 7 7 4 4 1018.7 - 0.0
20/02:00am 11.3 9.8 9.1 86 1.1 NNW 7 9 4 5 1019.0 - 0.0
20/01:30am 10.5 8.8 8.5 87 1.0 W 7 11 4 6 1019.3 - 0.0
20/01:00am 10.4 8.8 8.6 89 0.9 NNW 7 9 4 5 1019.6 - 0.0
20/12:30am 10.4 8.3 8.1 86 1.1 NW 9 9 5 5 1019.8 - 0.0
20/12:00am 10.6 10.2 8.1 84 1.2 CALM 0 7 0 4 1020.0 1019.9 0.0
 
Date/Time
CDT
Temp
°C
App
Temp
°C
Dew
Point
Rel
Hum
%
Delta-T
°C
Wind Press
QNH
hPa
Press
MSL
hPa
Rain
since 9 am
mm
Dir
 
Spd
km/h
Gust
km/h
Spd
kts
Gust
kts
19/11:30pm 11.1 10.8 8.5 84 1.3 CALM 0 0 0 0 1020.4 - 0.0
19/11:00pm 11.3 9.7 8.2 81 1.5 NW 6 7 3 4 1020.4 - 0.0
19/10:30pm 11.9 10.3 8.2 78 1.8 W 6 7 3 4 1020.6 - 0.0
19/10:00pm 13.2 11.6 8.6 73 2.3 W 7 7 4 4 1020.5 - 0.0
19/09:30pm 13.9 11.5 8.5 70 2.7 WSW 11 13 6 7 1020.5 - 0.0
19/09:00pm 14.8 12.4 8.7 67 3.1 SW 11 15 6 8 1020.3 1020.2 0.0
19/08:30pm 15.2 11.9 8.0 62 3.6 WSW 15 20 8 11 1020.4 - 0.0
19/08:00pm 15.5 12.1 7.7 59 3.9 WSW 15 20 8 11 1020.5 - 0.0
19/07:30pm 15.7 11.4 7.0 56 4.3 WSW 19 24 10 13 1020.2 - 0.0
19/07:00pm 16.8 11.7 6.1 49 5.2 SW 22 32 12 17 1020.1 - 0.0
19/06:30pm 16.8 11.7 5.9 48 5.3 SW 22 32 12 17 1019.8 - 0.0
19/06:00pm 18.0 13.2 5.4 43 6.1 SW 20 30 11 16 1019.5 1019.4 0.0
19/05:30pm 18.2 12.9 4.9 41 6.4 SW 22 33 12 18 1019.4 - 0.0
19/05:00pm 18.1 12.3 4.4 40 6.5 SW 24 37 13 20 1019.4 - 0.0
19/04:30pm 17.8 11.7 4.6 41 6.3 SW 26 33 14 18 1019.5 - 0.0
19/04:00pm 20.1 13.5 4.3 35 7.6 SW 28 37 15 20 1019.5 - 0.0
19/03:30pm 19.2 12.3 4.4 37 7.1 W 30 43 16 23 1019.5 - 0.0
19/03:00pm 19.4 12.7 3.5 35 7.5 W 28 44 15 24 1019.4 1019.3 0.0
19/02:30pm 18.4 12.3 4.6 40 6.6 WSW 26 39 14 21 1019.4 - 0.0
19/02:00pm 19.0 12.9 5.0 39 6.8 WSW 26 35 14 19 1019.4 - 0.0
19/01:30pm 18.4 12.6 4.6 40 6.6 WSW 24 35 13 19 1019.4 - 0.0
19/01:00pm 19.2 14.8 4.7 38 7.0 W 17 22 9 12 1019.3 - 0.0
19/12:30pm 18.2 12.3 3.7 38 6.8 W 24 33 13 18 1019.5 - 0.0
19/12:00pm 18.5 13.8 3.3 36 7.1 SSW 17 24 9 13 1019.4 1019.3 0.0
19/11:30am 18.4 12.6 4.6 40 6.6 W 24 32 13 17 1019.3 - 0.0
19/11:00am 16.2 10.5 5.0 47 5.3 WSW 24 35 13 19 1019.3 - 0.0
19/10:30am 17.0 12.4 5.6 47 5.5 SSW 19 24 10 13 1019.4 - 0.0
19/10:00am 16.5 12.5 6.8 52 4.8 SW 17 22 9 12 1019.4 - 0.0
19/09:30am 15.5 12.3 7.0 57 4.2 SW 13 19 7 10 1019.3 - 0.0
19/09:00am 14.4 10.3 7.7 64 3.3 WSW 19 26 10 14 1019.2 1019.1 1.6
19/08:30am 15.5 12.1 7.7 59 3.9 SW 15 26 8 14 1018.7 - 1.6
19/08:00am 13.6 10.6 7.9 68 2.8 W 13 15 7 8 1018.4 - 1.6
19/07:30am 11.0 9.2 8.1 82 1.4 WNW 7 9 4 5 1018.0 - 1.6
19/07:00am 9.4 6.7 7.5 88 0.9 NW 11 13 6 7 1017.8 - 1.6
19/06:30am 7.4 4.0 6.1 91 0.6 NW 13 15 7 8 1017.3 - 1.6
19/06:00am 6.5 4.3 5.4 93 0.5 NW 6 9 3 5 1017.0 1016.9 1.6
19/05:30am 7.0 4.9 5.7 91 0.6 NW 6 7 3 4 1016.7 - 1.6
19/05:00am 7.3 5.2 5.7 89 0.7 NNW 6 7 3 4 1016.5 - 1.6
19/04:30am 7.1 6.1 5.8 91 0.6 CALM 0 0 0 0 1016.2 - 1.6
19/04:00am 7.2 5.0 6.1 93 0.5 NNW 7 9 4 5 1016.2 - 1.6
19/03:30am 6.8 4.7 5.7 93 0.5 NW 6 7 3 4 1016.1 - 1.6
19/03:00am 7.0 4.3 5.7 91 0.6 NW 9 9 5 5 1016.0 1015.9 1.6
19/02:30am 7.3 5.1 6.0 91 0.6 NW 7 9 4 5 1015.9 - 1.6
19/02:00am 7.7 5.5 6.4 91 0.6 NW 7 9 4 5 1015.9 - 1.6
19/01:30am 7.8 5.2 6.0 88 0.8 NW 9 9 5 5 1016.0 - 1.6
19/01:00am 7.9 5.3 6.1 88 0.8 NW 9 11 5 6 1016.1 - 1.6
19/12:30am 8.7 6.5 6.3 85 1.1 W 7 9 4 5 1016.2 - 1.6
19/12:00am 9.9 7.8 6.7 80 1.5 W 7 9 4 5 1015.9 1015.8 1.6
 
Date/Time
CDT
Temp
°C
App
Temp
°C
Dew
Point
Rel
Hum
%
Delta-T
°C
Wind Press
QNH
hPa
Press
MSL
hPa
Rain
since 9 am
mm
Dir
 
Spd
km/h
Gust
km/h
Spd
kts
Gust
kts
18/11:30pm 10.4 8.0 6.8 78 1.7 W 9 11 5 6 1015.8 - 1.6
18/11:00pm 10.8 8.4 7.0 77 1.8 W 9 9 5 5 1015.5 - 1.6
18/10:30pm 11.2 8.4 7.0 75 2.0 W 11 11 6 6 1015.4 - 1.6
18/10:00pm 11.7 9.3 7.1 73 2.2 W 9 11 5 6 1015.3 - 1.6

Other Formats:

Comma delimited format used in spreadsheet applications
http://www.bom.gov.au/fwo/IDS60801/IDS60801.94821.axf

JavaScript Object Notation format (JSON) in row-major order
http://www.bom.gov.au/fwo/IDS60801/IDS60801.94821.json